Time;durP1;ratioP1;P1;durP2;ratioP2;P2;SDS_P1;SDS_P2;PMS_P1;PMS_P2;Temp;Humidity;BMP_temperature;BMP_pressure;BME280_temperature;BME280_humidity;BME280_pressure;Samples;Min_cycle;Max_cycle;Signal;HPM_P1;HPM_P2
2023/01/14 00:01:50;;;;;;;22.25;2.25;;;6.30;99.90;;;;;;5044214;28;20046;-71
2023/01/14 00:04:15;;;;;;;15.70;2.42;;;6.30;99.90;;;;;;5042406;28;20562;-72
2023/01/14 00:06:41;;;;;;;11.45;2.10;;;6.30;99.90;;;;;;5042749;28;20029;-71
2023/01/14 00:09:12;;;;;;;13.95;2.20;;;6.30;99.90;;;;;;5044225;28;20505;-73
2023/01/14 00:11:48;;;;;;;11.10;2.00;;;6.30;99.90;;;;;;5044086;28;20483;-73
2023/01/14 00:14:23;;;;;;;10.52;1.75;;;6.20;99.90;;;;;;5043954;28;20013;-72
2023/01/14 00:16:51;;;;;;;10.88;2.28;;;6.30;99.90;;;;;;5043650;28;20017;-73
2023/01/14 00:19:18;;;;;;;12.10;1.83;;;6.20;99.90;;;;;;5042913;28;20037;-72
2023/01/14 00:21:44;;;;;;;17.95;2.13;;;6.20;99.90;;;;;;5043184;28;20703;-72
2023/01/14 00:24:12;;;;;;;10.73;2.28;;;6.20;99.90;;;;;;5042192;28;20140;-73
2023/01/14 00:26:38;;;;;;;11.18;2.30;;;6.20;99.90;;;;;;5042212;28;21103;-72
2023/01/14 00:29:04;;;;;;;17.00;2.55;;;6.20;99.90;;;;;;5042004;28;20028;-71
2023/01/14 00:31:30;;;;;;;9.18;1.73;;;6.20;99.90;;;;;;5042543;28;20025;-71
2023/01/14 00:33:59;;;;;;;8.98;2.15;;;6.20;99.90;;;;;;5043680;28;20029;-70
2023/01/14 00:36:26;;;;;;;10.27;2.20;;;6.20;99.90;;;;;;5042034;28;20022;-70
2023/01/14 00:38:53;;;;;;;7.05;1.70;;;6.20;99.90;;;;;;5043364;28;20021;-68
2023/01/14 00:41:24;;;;;;;14.95;1.80;;;6.20;99.90;;;;;;5043177;28;20044;-71
2023/01/14 00:44:00;;;;;;;11.75;2.03;;;6.20;99.90;;;;;;5043497;28;20025;-71
2023/01/14 00:46:29;;;;;;;18.00;2.97;;;6.30;99.90;;;;;;5043301;28;20017;-70
2023/01/14 00:48:55;;;;;;;7.57;1.70;;;6.30;99.90;;;;;;5042168;28;20067;-71
2023/01/14 00:51:21;;;;;;;16.10;2.88;;;6.30;99.90;;;;;;5041496;28;20025;-74
2023/01/14 00:53:47;;;;;;;12.95;1.70;;;6.20;99.90;;;;;;5042080;28;20029;-74
2023/01/14 00:56:15;;;;;;;14.57;2.42;;;6.20;99.90;;;;;;5042784;28;20073;-71
2023/01/14 00:58:41;;;;;;;15.25;2.20;;;6.30;99.90;;;;;;5041607;28;20075;-71
2023/01/14 01:01:07;;;;;;;10.98;2.47;;;6.30;99.90;;;;;;5043239;28;20030;-71
2023/01/14 01:03:38;;;;;;;19.10;2.83;;;6.30;99.90;;;;;;5043105;28;20029;-71
2023/01/14 01:06:04;;;;;;;17.55;2.25;;;6.30;99.90;;;;;;5043191;28;20022;-71
2023/01/14 01:08:30;;;;;;;10.68;2.25;;;6.30;99.90;;;;;;5041521;28;20032;-71
2023/01/14 01:10:56;;;;;;;10.60;2.22;;;6.30;99.90;;;;;;5043085;28;20375;-72
2023/01/14 01:13:23;;;;;;;7.65;1.90;;;6.30;99.90;;;;;;5040899;28;20095;-71
2023/01/14 01:15:50;;;;;;;16.40;2.38;;;6.30;99.90;;;;;;5042953;28;20104;-72
2023/01/14 01:18:15;;;;;;;18.15;2.95;;;6.30;99.90;;;;;;5041221;28;20069;-73
2023/01/14 01:20:42;;;;;;;14.20;2.38;;;6.30;99.90;;;;;;5041296;28;20113;-72
2023/01/14 01:23:10;;;;;;;16.92;2.40;;;6.30;99.90;;;;;;5041212;28;20025;-71
2023/01/14 01:25:36;;;;;;;14.00;2.42;;;6.30;99.90;;;;;;5040815;28;20067;-74
2023/01/14 01:28:02;;;;;;;10.95;2.10;;;6.20;99.90;;;;;;5042600;28;20061;-72
2023/01/14 01:30:28;;;;;;;10.52;2.25;;;6.20;99.90;;;;;;5042905;28;20030;-71
2023/01/14 01:32:54;;;;;;;12.52;2.75;;;6.20;99.90;;;;;;5042574;28;20056;-70
2023/01/14 01:35:22;;;;;;;15.43;2.67;;;6.20;99.90;;;;;;5039358;28;20052;-71
2023/01/14 01:37:48;;;;;;;11.57;1.98;;;6.20;99.90;;;;;;5041747;28;20022;-72
2023/01/14 01:40:14;;;;;;;16.35;2.38;;;6.20;99.90;;;;;;5041389;28;20028;-71
2023/01/14 01:42:54;;;;;;;18.40;2.40;;;6.20;99.90;;;;;;5042025;28;20036;-73
2023/01/14 01:45:41;;;;;;;12.77;2.72;;;6.20;99.90;;;;;;5042399;28;20032;-72
2023/01/14 01:48:29;;;;;;;10.45;2.17;;;6.20;99.90;;;;;;5042364;28;20544;-70
2023/01/14 01:51:04;;;;;;;12.18;2.53;;;6.20;99.90;;;;;;5040738;28;20104;-69
2023/01/14 01:53:36;;;;;;;14.57;2.75;;;6.30;99.90;;;;;;5042119;28;20029;-70
2023/01/14 01:56:03;;;;;;;13.05;2.10;;;6.30;99.90;;;;;;5040706;28;20041;-72
2023/01/14 01:58:31;;;;;;;9.85;2.08;;;6.30;99.90;;;;;;5042350;28;20033;-70
2023/01/14 02:00:56;;;;;;;13.57;2.38;;;6.30;99.90;;;;;;5039961;28;20038;-71
2023/01/14 02:03:38;;;;;;;17.23;2.53;;;6.30;99.90;;;;;;5040751;28;20030;-72
2023/01/14 02:06:05;;;;;;;23.33;3.22;;;6.30;99.90;;;;;;5041449;28;20029;-69
2023/01/14 02:08:33;;;;;;;12.35;1.77;;;6.40;99.90;;;;;;5041385;28;20085;-71
2023/01/14 02:11:20;;;;;;;11.30;1.88;;;6.40;99.90;;;;;;5040544;28;20033;-69
2023/01/14 02:14:15;;;;;;;11.98;2.13;;;6.40;99.90;;;;;;5041797;28;20021;-72
2023/01/14 02:17:01;;;;;;;13.75;1.63;;;6.40;99.90;;;;;;5041957;28;20437;-74
2023/01/14 02:19:33;;;;;;;8.43;1.30;;;6.40;99.90;;;;;;5040789;28;20025;-72
2023/01/14 02:22:45;;;;;;;7.97;1.13;;;6.40;99.90;;;;;;5041576;28;20103;-69
2023/01/14 02:25:35;;;;;;;8.18;1.38;;;6.30;99.90;;;;;;5040218;28;20114;-73
2023/01/14 02:28:28;;;;;;;5.32;1.30;;;6.30;99.90;;;;;;5041803;28;20048;-69
2023/01/14 02:31:00;;;;;;;6.30;1.30;;;6.30;99.90;;;;;;5039946;28;20041;-70
2023/01/14 02:33:28;;;;;;;6.15;1.20;;;6.30;99.90;;;;;;5041185;28;20025;-71
2023/01/14 02:36:01;;;;;;;5.43;1.27;;;6.30;99.90;;;;;;5040999;28;20018;-72
2023/01/14 02:38:54;;;;;;;11.15;1.45;;;6.30;99.90;;;;;;5041333;28;20026;-70
2023/01/14 02:44:33;;;;;;;9.98;1.25;;;6.20;99.90;;;;;;5041374;28;20049;-70
2023/01/14 02:47:05;;;;;;;6.25;1.20;;;6.20;99.90;;;;;;5039960;28;20029;-71
2023/01/14 02:49:35;;;;;;;8.90;2.00;;;6.10;99.90;;;;;;5041393;28;20036;-69
2023/01/14 02:52:06;;;;;;;9.25;2.22;;;6.20;99.90;;;;;;5041102;28;20034;-70
2023/01/14 02:54:31;;;;;;;11.82;2.10;;;6.10;99.90;;;;;;5039525;28;20904;-70
2023/01/14 02:57:11;;;;;;;11.40;1.90;;;6.10;99.90;;;;;;5041242;28;20018;-72
2023/01/14 02:59:48;;;;;;;14.57;2.17;;;6.10;99.90;;;;;;5041443;28;20017;-71
2023/01/14 03:02:35;;;;;;;7.43;2.00;;;6.00;99.90;;;;;;5040160;28;20040;-71
2023/01/14 03:05:17;;;;;;;9.52;2.45;;;6.10;99.90;;;;;;5041317;28;20018;-72
2023/01/14 03:07:50;;;;;;;7.97;1.85;;;6.00;99.90;;;;;;5041256;28;20044;-71
2023/01/14 03:10:41;;;;;;;18.50;2.70;;;6.00;99.90;;;;;;5041225;28;20048;-72
2023/01/14 03:13:23;;;;;;;15.20;2.92;;;6.10;99.90;;;;;;5040116;28;20032;-69
2023/01/14 03:16:03;;;;;;;12.52;3.03;;;6.10;99.90;;;;;;5041211;28;20456;-70
2023/01/14 03:18:40;;;;;;;18.77;3.63;;;6.10;99.90;;;;;;5039496;28;20108;-69
2023/01/14 03:21:15;;;;;;;17.48;3.40;;;6.20;99.90;;;;;;5041067;28;20040;-69
2023/01/14 03:23:52;;;;;;;16.25;3.83;;;6.20;99.90;;;;;;5041051;28;20040;-69
2023/01/14 03:26:20;;;;;;;20.95;3.53;;;6.20;99.90;;;;;;5039252;28;20076;-72
2023/01/14 03:28:47;;;;;;;15.00;3.60;;;6.30;99.90;;;;;;5040653;28;20023;-69
2023/01/14 03:31:16;;;;;;;22.95;3.60;;;6.30;99.90;;;;;;5040830;28;20040;-71
2023/01/14 03:33:54;;;;;;;16.83;3.25;;;6.30;99.90;;;;;;5039636;28;20044;-70
2023/01/14 03:36:24;;;;;;;23.23;4.05;;;6.30;99.90;;;;;;5039528;28;20029;-72
2023/01/14 03:38:56;;;;;;;13.43;3.38;;;6.30;99.90;;;;;;5040275;28;20025;-68
2023/01/14 03:44:13;;;;;;;24.95;3.42;;;6.40;99.90;;;;;;5040878;28;20083;-71
2023/01/14 03:46:39;;;;;;;23.92;3.50;;;6.40;99.90;;;;;;5041446;28;20136;-68
2023/01/14 03:49:05;;;;;;;26.08;3.97;;;6.40;99.90;;;;;;5040546;28;20022;-69
2023/01/14 03:51:44;;;;;;;19.50;3.20;;;6.40;99.90;;;;;;5039544;28;20033;-68
2023/01/14 03:54:29;;;;;;;20.73;3.40;;;6.40;99.90;;;;;;5040809;28;20029;-70
2023/01/14 03:57:06;;;;;;;18.02;3.47;;;6.40;99.90;;;;;;5040634;28;20030;-71
2023/01/14 03:59:43;;;;;;;20.48;3.45;;;6.50;99.90;;;;;;5044201;28;20040;-70
2023/01/14 04:02:11;;;;;;;17.20;3.50;;;6.50;99.90;;;;;;5043685;28;20456;-70
2023/01/14 04:04:37;;;;;;;22.98;3.88;;;6.50;99.90;;;;;;5044144;28;20029;-73
2023/01/14 04:07:03;;;;;;;16.25;3.55;;;6.50;99.90;;;;;;5043783;28;20036;-70
2023/01/14 04:09:28;;;;;;;26.33;3.58;;;6.50;99.90;;;;;;5044173;28;20025;-71
2023/01/14 04:11:54;;;;;;;18.98;3.45;;;6.50;99.90;;;;;;5042972;28;20029;-71
2023/01/14 04:17:06;;;;;;;28.05;4.20;;;6.50;99.90;;;;;;5044240;28;20056;-68
2023/01/14 04:19:32;;;;;;;25.40;3.78;;;6.50;99.90;;;;;;5044092;28;20013;-70
2023/01/14 04:21:58;;;;;;;17.98;3.63;;;6.50;99.90;;;;;;5042611;28;20037;-71
2023/01/14 04:24:23;;;;;;;16.67;4.20;;;6.50;99.90;;;;;;5043884;28;20061;-71
2023/01/14 04:26:49;;;;;;;20.95;4.28;;;6.50;99.90;;;;;;5042078;28;20044;-72
2023/01/14 04:29:14;;;;;;;20.05;3.90;;;6.60;99.90;;;;;;5043745;28;20092;-70
2023/01/14 04:31:40;;;;;;;25.02;4.53;;;6.50;99.90;;;;;;5042399;28;20036;-70
2023/01/14 04:34:06;;;;;;;19.52;4.00;;;6.50;99.90;;;;;;5043940;28;20064;-69
2023/01/14 04:36:32;;;;;;;19.08;3.95;;;6.60;99.90;;;;;;5043554;28;20025;-68
2023/01/14 04:38:57;;;;;;;18.90;4.60;;;6.60;99.90;;;;;;5043659;28;20036;-70
2023/01/14 04:44:07;;;;;;;19.52;3.50;;;6.60;99.90;;;;;;5043471;28;20150;-70
2023/01/14 04:46:36;;;;;;;21.40;3.63;;;6.60;99.90;;;;;;5042314;28;20491;-69
2023/01/14 04:49:02;;;;;;;30.83;4.43;;;6.60;99.90;;;;;;5043126;28;20095;-69
2023/01/14 04:51:27;;;;;;;26.17;3.78;;;6.60;99.90;;;;;;5042125;28;20467;-68
2023/01/14 04:53:54;;;;;;;26.10;3.85;;;6.60;99.90;;;;;;5043387;28;20131;-71
2023/01/14 04:56:19;;;;;;;17.48;3.28;;;6.50;99.90;;;;;;5043042;28;20475;-67
2023/01/14 04:58:45;;;;;;;19.38;3.42;;;6.50;99.90;;;;;;5041590;28;20024;-70
2023/01/14 05:01:11;;;;;;;19.80;3.17;;;6.50;99.90;;;;;;5042990;28;20048;-71
2023/01/14 05:03:37;;;;;;;26.58;3.67;;;6.50;99.90;;;;;;5043523;28;20115;-69
2023/01/14 05:06:03;;;;;;;21.40;3.15;;;6.50;99.90;;;;;;5043102;28;20018;-69
2023/01/14 05:08:29;;;;;;;20.40;3.65;;;6.50;99.90;;;;;;5042348;28;20089;-70
2023/01/14 05:10:54;;;;;;;19.02;3.00;;;6.50;99.90;;;;;;5043099;28;20022;-68
2023/01/14 05:13:20;;;;;;;16.98;2.67;;;6.50;99.90;;;;;;5043048;28;20622;-72
2023/01/14 05:15:46;;;;;;;21.63;3.10;;;6.50;99.90;;;;;;5041889;28;20017;-70
2023/01/14 05:18:14;;;;;;;17.80;2.85;;;6.50;99.90;;;;;;5041380;28;20139;-71
2023/01/14 05:20:41;;;;;;;20.45;3.83;;;6.50;99.90;;;;;;5042717;28;20105;-70
2023/01/14 05:23:16;;;;;;;21.77;3.10;;;6.40;99.90;;;;;;5042657;28;20017;-69
2023/01/14 05:25:42;;;;;;;19.70;3.38;;;6.40;99.90;;;;;;5041119;28;20058;-67
2023/01/14 05:28:15;;;;;;;18.58;2.90;;;6.40;99.90;;;;;;5041069;28;20025;-69
2023/01/14 05:30:41;;;;;;;13.90;2.72;;;6.40;99.90;;;;;;5042520;28;20022;-71
2023/01/14 05:33:07;;;;;;;21.33;3.53;;;6.40;99.90;;;;;;5042869;28;20037;-72
2023/01/14 05:35:33;;;;;;;23.23;3.10;;;6.40;99.90;;;;;;5040904;28;20107;-72
2023/01/14 05:38:03;;;;;;;25.92;4.07;;;6.40;99.90;;;;;;5042331;28;20098;-71
2023/01/14 05:40:29;;;;;;;21.48;3.55;;;6.40;99.90;;;;;;5040695;28;20029;-72
2023/01/14 05:45:48;;;;;;;13.98;2.78;;;6.30;99.90;;;;;;5042230;28;20060;-73
2023/01/14 05:48:24;;;;;;;22.25;3.47;;;6.40;99.90;;;;;;5040242;28;20075;-71
2023/01/14 05:50:55;;;;;;;18.35;3.95;;;6.40;99.90;;;;;;5040769;28;20108;-70
2023/01/14 05:53:22;;;;;;;17.17;3.58;;;6.40;99.90;;;;;;5040266;28;20030;-71
2023/01/14 05:55:48;;;;;;;28.85;4.57;;;6.30;99.90;;;;;;5042337;28;20029;-70
2023/01/14 05:58:14;;;;;;;29.67;4.72;;;6.30;99.90;;;;;;5040583;28;20032;-70
2023/01/14 06:06:28;;;;;;;26.10;4.93;;;6.30;99.90;;;;;;5041612;28;20040;-71
2023/01/14 06:08:56;;;;;;;23.42;4.35;;;6.20;99.90;;;;;;5041037;28;20406;-70
2023/01/14 06:11:23;;;;;;;34.25;5.35;;;6.30;99.90;;;;;;5038353;28;20037;-73
2023/01/14 06:13:51;;;;;;;24.95;5.07;;;6.10;99.90;;;;;;5041335;28;20021;-72
2023/01/14 06:16:18;;;;;;;25.98;5.75;;;6.30;99.90;;;;;;5042080;28;20049;-70
2023/01/14 06:18:44;;;;;;;28.73;5.80;;;6.20;99.90;;;;;;5040014;28;20053;-69
2023/01/14 06:21:13;;;;;;;25.70;5.70;;;6.20;99.90;;;;;;5041149;28;20030;-68
2023/01/14 06:23:39;;;;;;;22.55;5.53;;;6.20;99.90;;;;;;5038752;28;20044;-73
2023/01/14 06:26:09;;;;;;;30.58;6.70;;;6.10;99.90;;;;;;5037100;28;20049;-73
2023/01/14 06:28:35;;;;;;;26.55;6.22;;;6.10;99.90;;;;;;5039809;28;20021;-73
2023/01/14 06:31:01;;;;;;;25.85;6.05;;;6.10;99.90;;;;;;5041650;28;20576;-74
2023/01/14 06:33:26;;;;;;;27.02;7.32;;;6.10;99.90;;;;;;5039919;28;20089;-72
2023/01/14 06:35:52;;;;;;;45.33;8.68;;;6.00;99.90;;;;;;5041425;28;20036;-73
2023/01/14 06:38:17;;;;;;;31.23;7.78;;;6.00;99.90;;;;;;5039643;28;20117;-74
2023/01/14 06:40:43;;;;;;;40.15;8.90;;;6.00;99.90;;;;;;5041559;28;20052;-75
2023/01/14 06:43:09;;;;;;;51.40;8.68;;;6.00;99.90;;;;;;5040519;28;20032;-75
2023/01/14 06:45:35;;;;;;;43.33;8.60;;;5.90;99.90;;;;;;5039231;28;20025;-73
2023/01/14 06:48:01;;;;;;;34.25;7.93;;;5.90;99.90;;;;;;5039237;28;20064;-74
2023/01/14 06:50:27;;;;;;;42.70;8.52;;;5.80;99.90;;;;;;5039902;28;20025;-72
2023/01/14 06:52:52;;;;;;;32.55;7.07;;;5.80;99.90;;;;;;5040533;28;20048;-75
2023/01/14 06:55:20;;;;;;;38.05;7.35;;;5.80;99.90;;;;;;5039535;28;20029;-73
2023/01/14 06:57:45;;;;;;;27.38;5.60;;;5.80;99.90;;;;;;5040236;28;20108;-74
2023/01/14 07:00:12;;;;;;;35.63;6.70;;;5.70;99.90;;;;;;5038311;28;20025;-75
2023/01/14 07:02:38;;;;;;;32.58;6.78;;;5.70;99.90;;;;;;5041432;28;20752;-73
2023/01/14 07:05:04;;;;;;;30.15;6.38;;;5.70;99.90;;;;;;5039407;28;20083;-74
2023/01/14 07:07:29;;;;;;;39.35;6.75;;;5.60;99.90;;;;;;5039560;28;20049;-74
2023/01/14 07:09:55;;;;;;;28.33;6.55;;;5.70;99.90;;;;;;5041088;28;20022;-73
2023/01/14 07:12:20;;;;;;;35.88;7.45;;;5.60;99.90;;;;;;5040182;28;20108;-74
2023/01/14 07:14:46;;;;;;;40.38;6.93;;;5.50;99.90;;;;;;5040285;28;20040;-75
2023/01/14 07:17:12;;;;;;;28.17;7.07;;;5.60;99.90;;;;;;5039325;28;20184;-74
2023/01/14 07:19:37;;;;;;;37.83;7.10;;;5.60;99.90;;;;;;5034419;28;20025;-74
2023/01/14 07:22:03;;;;;;;35.80;6.50;;;5.60;99.90;;;;;;5040632;28;20037;-75
2023/01/14 07:24:28;;;;;;;35.97;6.70;;;5.60;99.90;;;;;;5040229;28;20026;-75
2023/01/14 07:26:54;;;;;;;42.53;6.90;;;5.60;99.90;;;;;;5038270;28;20045;-74
2023/01/14 07:29:19;;;;;;;41.75;7.43;;;5.60;99.90;;;;;;5039776;28;20065;-74
2023/01/14 07:31:45;;;;;;;40.58;7.05;;;5.60;99.90;;;;;;5041502;28;20033;-73
2023/01/14 07:34:10;;;;;;;35.55;7.55;;;5.60;99.90;;;;;;5043503;28;20032;-75
2023/01/14 07:36:36;;;;;;;40.95;7.30;;;5.60;99.90;;;;;;5044345;28;20397;-74
2023/01/14 07:39:02;;;;;;;38.92;7.85;;;5.60;99.90;;;;;;5044708;28;20029;-74
2023/01/14 07:41:27;;;;;;;33.53;7.10;;;5.60;99.90;;;;;;5043472;28;20034;-74
2023/01/14 07:43:53;;;;;;;40.00;7.57;;;5.70;99.90;;;;;;5043212;28;20025;-73
2023/01/14 07:46:18;;;;;;;41.13;7.53;;;5.70;99.90;;;;;;5043442;28;20030;-70
2023/01/14 07:48:44;;;;;;;29.48;8.68;;;5.60;99.90;;;;;;5044898;28;20072;-75
2023/01/14 07:51:12;;;;;;;30.63;8.00;;;5.70;99.90;;;;;;5044857;28;20033;-71
2023/01/14 07:53:38;;;;;;;42.08;9.55;;;5.70;99.90;;;;;;5044143;28;20109;-74
2023/01/14 07:56:06;;;;;;;46.50;8.60;;;5.70;99.90;;;;;;5042882;28;20033;-75
2023/01/14 07:58:33;;;;;;;42.83;8.52;;;5.70;99.90;;;;;;5043071;28;20029;-74
2023/01/14 08:00:58;;;;;;;42.92;8.30;;;5.80;99.90;;;;;;5043077;28;20053;-74
2023/01/14 08:03:24;;;;;;;43.08;10.13;;;5.70;99.90;;;;;;5044454;28;20032;-76
2023/01/14 08:05:51;;;;;;;39.45;9.07;;;5.90;99.90;;;;;;5043530;28;20112;-75
2023/01/14 08:08:18;;;;;;;48.08;9.90;;;5.80;99.90;;;;;;5042873;28;20037;-77
2023/01/14 08:10:44;;;;;;;49.33;9.77;;;5.70;99.90;;;;;;5043130;28;20031;-76
2023/01/14 08:13:13;;;;;;;47.83;8.77;;;5.70;99.90;;;;;;5043056;28;20084;-74
2023/01/14 08:15:39;;;;;;;43.92;10.15;;;5.70;99.90;;;;;;5043699;28;20449;-73
2023/01/14 08:18:05;;;;;;;37.28;7.78;;;5.70;99.90;;;;;;5044258;28;20053;-72
2023/01/14 08:20:31;;;;;;;54.28;9.75;;;5.80;99.90;;;;;;5041539;28;20033;-74
2023/01/14 08:23:00;;;;;;;40.35;8.93;;;5.80;99.90;;;;;;5041391;28;20171;-73
2023/01/14 08:25:26;;;;;;;39.72;10.00;;;5.80;99.90;;;;;;5034659;28;20072;-74
2023/01/14 08:27:53;;;;;;;39.15;9.88;;;5.80;99.90;;;;;;5031155;28;20091;-73
2023/01/14 08:30:20;;;;;;;58.33;10.82;;;5.80;99.90;;;;;;5036770;28;20042;-74
2023/01/14 08:32:48;;;;;;;47.90;9.55;;;5.80;99.90;;;;;;5033206;28;20030;-73
2023/01/14 08:35:14;;;;;;;52.25;10.65;;;5.80;99.90;;;;;;5038941;28;20045;-72
2023/01/14 08:37:41;;;;;;;46.78;9.48;;;5.80;99.90;;;;;;5039440;28;20034;-74
2023/01/14 08:40:07;;;;;;;43.97;9.68;;;5.80;99.90;;;;;;5038958;28;20017;-72
2023/01/14 08:42:33;;;;;;;46.13;8.88;;;5.80;99.90;;;;;;5039664;28;20033;-75
2023/01/14 08:44:58;;;;;;;41.22;8.95;;;5.80;99.90;;;;;;5039752;28;20035;-75
2023/01/14 08:47:24;;;;;;;46.15;9.38;;;5.70;99.90;;;;;;5043209;28;20425;-72
2023/01/14 08:49:50;;;;;;;55.75;11.73;;;5.80;99.90;;;;;;5043446;28;20041;-74
2023/01/14 08:52:15;;;;;;;53.72;9.65;;;5.90;99.90;;;;;;5042013;28;20017;-74
2023/01/14 08:54:41;;;;;;;42.03;9.32;;;5.80;99.90;;;;;;5043507;28;20052;-75
2023/01/14 08:57:07;;;;;;;40.55;9.93;;;5.90;99.90;;;;;;5043141;28;20048;-71
2023/01/14 08:59:32;;;;;;;54.47;11.63;;;6.00;99.90;;;;;;5041840;28;20025;-73
2023/01/14 09:01:58;;;;;;;51.72;10.95;;;5.90;99.90;;;;;;5040440;28;20033;-75
2023/01/14 09:04:27;;;;;;;44.72;9.60;;;6.00;99.90;;;;;;5040765;28;20026;-71
2023/01/14 09:18:01;;;;;;;36.00;9.75;;;6.10;99.90;;;;;;5022588;28;20048;-71
2023/01/14 09:20:32;;;;;;;43.45;9.23;;;6.10;99.90;;;;;;5041096;28;20093;-70
2023/01/14 09:22:58;;;;;;;44.17;11.18;;;6.10;99.90;;;;;;5040045;28;20033;-72
2023/01/14 09:25:23;;;;;;;51.17;10.38;;;6.10;99.90;;;;;;5041651;28;20081;-74
2023/01/14 09:27:49;;;;;;;55.63;10.65;;;6.30;99.90;;;;;;5041540;28;20075;-75
2023/01/14 09:30:15;;;;;;;55.88;11.68;;;6.20;99.90;;;;;;5042115;28;20021;-72
2023/01/14 09:32:41;;;;;;;47.78;10.68;;;6.20;99.90;;;;;;5038671;28;20056;-71
2023/01/14 09:35:07;;;;;;;67.25;11.27;;;6.20;99.90;;;;;;5040638;28;20048;-74
2023/01/14 09:37:33;;;;;;;48.08;10.00;;;6.20;99.90;;;;;;5041908;28;20132;-73
2023/01/14 09:40:00;;;;;;;47.75;10.35;;;6.20;99.90;;;;;;5040084;28;20057;-72
2023/01/14 09:42:31;;;;;;;50.45;9.50;;;6.20;99.90;;;;;;5040650;28;20057;-74
2023/01/14 09:45:22;;;;;;;51.05;9.40;;;6.30;99.90;;;;;;5038861;28;20024;-71
2023/01/14 09:47:52;;;;;;;49.25;9.02;;;6.20;99.90;;;;;;5040788;28;20377;-75
2023/01/14 09:50:31;;;;;;;46.42;9.55;;;6.30;99.90;;;;;;5037618;28;20056;-75
2023/01/14 09:53:02;;;;;;;43.72;8.43;;;6.30;99.90;;;;;;5041538;28;20032;-70
2023/01/14 09:55:39;;;;;;;41.80;8.68;;;6.30;99.90;;;;;;5041312;28;20025;-74
2023/01/14 09:58:31;;;;;;;47.10;8.10;;;6.30;99.90;;;;;;5042726;28;20082;-72
2023/01/14 10:00:59;;;;;;;47.97;9.48;;;6.30;99.90;;;;;;5040463;28;20524;-75
2023/01/14 10:03:42;;;;;;;53.15;9.15;;;6.30;99.90;;;;;;5040338;28;20097;-75
2023/01/14 10:06:13;;;;;;;38.00;8.77;;;6.30;99.90;;;;;;5042316;28;20029;-74
2023/01/14 10:08:45;;;;;;;46.00;8.25;;;6.30;99.90;;;;;;5041587;28;20037;-71
2023/01/14 10:11:13;;;;;;;41.78;7.72;;;6.30;99.90;;;;;;5040680;28;20040;-75
2023/01/14 10:14:02;;;;;;;37.53;7.15;;;6.30;99.90;;;;;;5040026;28;20044;-71
2023/01/14 10:16:34;;;;;;;35.58;8.00;;;6.40;99.90;;;;;;5041165;28;20033;-76
2023/01/14 10:19:22;;;;;;;38.45;7.05;;;6.40;99.90;;;;;;5038773;28;20037;-70
2023/01/14 10:22:13;;;;;;;32.75;5.88;;;6.40;99.90;;;;;;5039561;28;20065;-73
2023/01/14 10:24:42;;;;;;;43.15;6.47;;;6.40;99.90;;;;;;5041691;28;20689;-73
2023/01/14 10:27:15;;;;;;;27.05;4.78;;;6.40;99.90;;;;;;5041484;28;20026;-74
2023/01/14 10:29:41;;;;;;;33.63;6.07;;;6.40;99.90;;;;;;5040447;28;20089;-73
2023/01/14 10:32:12;;;;;;;28.52;4.43;;;6.40;99.90;;;;;;5039415;28;20099;-72
2023/01/14 10:34:39;;;;;;;30.52;5.65;;;6.40;99.90;;;;;;5038787;28;20069;-70
2023/01/14 10:37:10;;;;;;;42.20;5.72;;;6.40;99.90;;;;;;5039081;28;20026;-71
2023/01/14 10:39:38;;;;;;;31.10;4.07;;;6.40;99.90;;;;;;5040661;28;20430;-74
2023/01/14 10:42:05;;;;;;;29.33;6.18;;;6.30;99.90;;;;;;5036721;28;20042;-73
2023/01/14 10:44:34;;;;;;;30.88;5.43;;;6.30;99.90;;;;;;5038109;28;20037;-71
2023/01/14 10:47:13;;;;;;;31.35;4.63;;;6.30;99.90;;;;;;5039123;28;20021;-73
2023/01/14 10:49:50;;;;;;;25.17;4.05;;;6.30;99.90;;;;;;5039572;28;20084;-72
2023/01/14 10:52:33;;;;;;;33.13;4.80;;;6.20;99.90;;;;;;5037676;28;20037;-73
2023/01/14 10:55:13;;;;;;;41.72;5.65;;;6.20;99.90;;;;;;5040106;28;20152;-73
2023/01/14 10:58:08;;;;;;;37.50;5.18;;;6.20;99.90;;;;;;5040540;28;20036;-73
2023/01/14 11:00:46;;;;;;;33.10;4.18;;;6.20;99.90;;;;;;5039364;28;20029;-72
2023/01/14 11:03:28;;;;;;;30.25;4.95;;;6.20;99.90;;;;;;5039279;28;20029;-71
2023/01/14 11:06:11;;;;;;;37.55;5.63;;;6.10;99.90;;;;;;5038797;28;20026;-72
2023/01/14 11:08:40;;;;;;;39.22;6.18;;;6.10;99.90;;;;;;5042816;28;20520;-75
2023/01/14 11:11:11;;;;;;;27.35;4.25;;;6.10;99.90;;;;;;5045686;28;20033;-73
2023/01/14 11:13:48;;;;;;;36.53;5.90;;;6.10;99.90;;;;;;5043628;28;20076;-75
2023/01/14 11:16:25;;;;;;;32.78;4.82;;;6.10;99.90;;;;;;5039830;28;20021;-73
2023/01/14 11:19:00;;;;;;;50.50;6.20;;;6.00;99.90;;;;;;5043445;28;20021;-72
2023/01/14 11:21:29;;;;;;;48.35;5.85;;;6.00;99.90;;;;;;5041065;28;20060;-71
2023/01/14 11:24:03;;;;;;;23.98;4.75;;;6.10;99.90;;;;;;5044909;28;20030;-76
2023/01/14 11:26:32;;;;;;;33.92;5.32;;;6.00;99.90;;;;;;5044626;28;20121;-75
2023/01/14 11:29:19;;;;;;;31.95;4.85;;;6.00;99.90;;;;;;5044775;28;20025;-74
2023/01/14 11:31:46;;;;;;;30.77;4.43;;;6.00;99.90;;;;;;5043492;28;20044;-72
2023/01/14 11:34:40;;;;;;;30.80;4.03;;;5.90;99.90;;;;;;5043608;28;20029;-77
2023/01/14 11:37:17;;;;;;;33.55;4.25;;;6.00;99.90;;;;;;5038580;28;20045;-74
2023/01/14 11:39:51;;;;;;;28.13;3.65;;;6.10;99.90;;;;;;5043511;28;20052;-73
2023/01/14 11:42:25;;;;;;;;;;;5.90;99.90;;;;;;5045262;28;20025;-74
2023/01/14 11:45:16;;;;;;;15.43;3.13;;;6.00;99.90;;;;;;5042853;28;19905;-73
2023/01/14 11:47:46;;;;;;;29.63;4.05;;;5.90;99.90;;;;;;5044815;28;20065;-71
2023/01/14 11:50:19;;;;;;;14.60;2.45;;;5.90;99.90;;;;;;5042624;28;20036;-73
2023/01/14 11:53:04;;;;;;;19.13;3.63;;;5.90;99.90;;;;;;5044593;28;20029;-73
2023/01/14 11:55:36;;;;;;;27.95;4.78;;;6.00;99.90;;;;;;5043350;28;20639;-72
2023/01/14 11:58:15;;;;;;;28.77;4.97;;;6.00;99.90;;;;;;5044013;28;20063;-72
2023/01/14 12:00:47;;;;;;;9.75;3.03;;;5.90;99.90;;;;;;5044990;28;20025;-73
2023/01/14 12:03:34;;;;;;;13.35;3.35;;;5.90;99.90;;;;;;5044576;28;20311;-74
2023/01/14 12:06:07;;;;;;;23.80;4.78;;;6.00;99.90;;;;;;5041659;28;20037;-73
2023/01/14 12:08:35;;;;;;;17.50;3.53;;;6.10;99.90;;;;;;5042600;28;20032;-71
2023/01/14 12:11:03;;;;;;;16.48;3.92;;;6.10;99.90;;;;;;5044113;28;20029;-73
2023/01/14 12:19:20;;;;;;;22.65;3.75;;;6.10;99.90;;;;;;5041292;28;20028;-72
2023/01/14 12:21:58;;;;;;;18.80;3.67;;;6.10;99.90;;;;;;5042701;28;20037;-73
2023/01/14 12:24:33;;;;;;;22.83;4.00;;;6.10;99.90;;;;;;5041968;28;20060;-74
2023/01/14 12:27:02;;;;;;;22.58;3.90;;;6.10;99.90;;;;;;5041006;28;20037;-72
2023/01/14 12:29:46;;;;;;;26.13;4.70;;;6.10;99.90;;;;;;5042251;28;20029;-73
2023/01/14 12:32:23;;;;;;;23.67;4.23;;;6.10;99.90;;;;;;5043621;28;20076;-73
2023/01/14 12:34:53;;;;;;;27.95;4.72;;;6.20;99.90;;;;;;5043919;28;21475;-72
2023/01/14 12:37:38;;;;;;;19.55;3.75;;;6.20;99.90;;;;;;5043579;28;20025;-72
2023/01/14 12:46:13;;;;;;;22.25;3.05;;;6.30;99.90;;;;;;5043775;28;20088;-73
2023/01/14 12:48:40;;;;;;;22.15;4.22;;;6.30;99.90;;;;;;5043171;28;20090;-73
2023/01/14 12:51:12;;;;;;;13.07;3.05;;;6.30;99.90;;;;;;5042372;28;20021;-73
2023/01/14 12:53:50;;;;;;;21.33;4.65;;;6.30;99.90;;;;;;5043634;28;20040;-70
2023/01/14 12:56:47;;;;;;;15.40;3.13;;;6.30;99.90;;;;;;5042524;28;20080;-73
2023/01/14 12:59:34;;;;;;;13.55;3.30;;;6.30;99.90;;;;;;5042216;28;20033;-71
2023/01/14 13:02:06;;;;;;;19.88;4.15;;;6.40;99.90;;;;;;5042772;28;20573;-73
2023/01/14 13:04:45;;;;;;;20.70;4.95;;;6.40;99.90;;;;;;5042865;28;20797;-72
2023/01/14 13:07:21;;;;;;;13.75;3.85;;;6.40;99.90;;;;;;5043119;28;20044;-72
2023/01/14 13:09:51;;;;;;;27.30;4.40;;;6.50;99.90;;;;;;5042894;28;20022;-70
2023/01/14 13:12:27;;;;;;;16.10;2.50;;;6.40;99.90;;;;;;5041347;28;20021;-73
2023/01/14 13:15:22;;;;;;;14.45;3.90;;;6.40;99.90;;;;;;5043142;28;20033;-73
2023/01/14 13:17:57;;;;;;;19.88;4.32;;;6.50;99.90;;;;;;5043094;28;20077;-71
2023/01/14 13:20:28;;;;;;;;;;;6.50;99.90;;;;;;5042883;28;20037;-72
2023/01/14 13:22:58;;;;;;;17.20;4.10;;;6.50;99.90;;;;;;5041647;28;19921;-72
2023/01/14 13:25:37;;;;;;;16.50;3.15;;;6.40;99.90;;;;;;5041054;28;20133;-69
2023/01/14 13:28:11;;;;;;;20.02;4.57;;;6.40;99.90;;;;;;5042714;28;20041;-72
2023/01/14 13:30:51;;;;;;;23.05;4.80;;;6.40;99.90;;;;;;5041527;28;21084;-73
2023/01/14 13:33:24;;;;;;;26.98;5.63;;;6.40;99.90;;;;;;5042236;28;20478;-73
2023/01/14 13:36:12;;;;;;;24.40;5.55;;;6.40;99.90;;;;;;5042564;28;20037;-72
2023/01/14 13:38:54;;;;;;;10.32;3.42;;;6.50;99.90;;;;;;5041485;28;20032;-72
2023/01/14 13:41:38;;;;;;;16.50;4.38;;;6.40;99.90;;;;;;5042156;28;20037;-73
2023/01/14 13:44:05;;;;;;;25.30;5.60;;;6.40;99.90;;;;;;5041168;28;20056;-73
2023/01/14 13:46:36;;;;;;;28.67;6.68;;;6.40;99.90;;;;;;5039871;28;20038;-71
2023/01/14 13:49:21;;;;;;;26.75;6.18;;;6.40;99.90;;;;;;5039890;28;20037;-72
2023/01/14 13:51:48;;;;;;;28.55;5.88;;;6.40;99.90;;;;;;5041410;28;20021;-70